SBCJ/CKS METAR and TAF weather

Enter ICAO airport designator
Station Type Date Time Source
SBCJ METAR 2021/03/02 14:00 UTC NOAA

SBCJ 021400Z 09005KT 2000 BR BKN009 BKN100 23/20 Q1015


Station Type Date Time Source
SBCJ Decoded METAR 2021/03/02 14:00 UTC NOAA

Carajas / Maraba, Brazil (SBCJ) 06-07S 050-00W
Mar 02, 2021 - 09:00 AM EST / 2021.03.02 1400 UTC
Wind: from the E (090 degrees) at 6 MPH (5 KT):0
Visibility: 1 mile(s):0
Sky conditions: mostly cloudy
Weather: mist
Temperature: 73 F (23 C)
Dew Point: 68 F (20 C)
Relative Humidity: 83%
Pressure (altimeter): 29.97 in. Hg (1015 hPa)
ob: SBCJ 021400Z 09005KT 2000 BR BKN009 BKN100 23/20 Q1015
cycle: 14

Station Type Date Time Source
SBCJ TAF 2021/03/02 12:57 UTC NOAA

TAF SBCJ 020900Z 0212/0224 00000KT 3000 RA BR BKN003 TX24/0218Z TN21/0223Z
BECMG 0213/0215 08002KT 4000 BR BKN007
BECMG 0218/0220 05003KT 3000 TSRA BKN005 FEW025CB
RMK PFV

Example: see airport list